createdAt,value
2019-03-29T00:01:51.554Z,9.50
2019-03-29T00:04:19.992Z,9.40
2019-03-29T00:06:48.413Z,9.30
2019-03-29T00:09:16.872Z,9.30
2019-03-29T00:11:45.326Z,9.20
2019-03-29T00:14:13.787Z,9.20
2019-03-29T00:16:42.202Z,9.20
2019-03-29T00:19:10.606Z,9.10
2019-03-29T00:21:39.189Z,9.10
2019-03-29T00:24:07.906Z,9.00
2019-03-29T00:26:36.355Z,9.00
2019-03-29T00:29:04.758Z,9.00
2019-03-29T00:31:33.184Z,8.90
2019-03-29T00:34:01.605Z,8.90
2019-03-29T00:36:30.020Z,8.80
2019-03-29T00:38:58.449Z,8.80
2019-03-29T00:41:26.871Z,8.80
2019-03-29T00:43:55.266Z,8.80
2019-03-29T00:46:24.130Z,8.70
2019-03-29T00:48:52.537Z,8.70
2019-03-29T00:51:20.969Z,8.70
2019-03-29T00:53:49.391Z,8.60
2019-03-29T00:56:17.867Z,8.60
2019-03-29T00:58:46.286Z,8.60
2019-03-29T01:01:14.791Z,8.50
2019-03-29T01:03:43.221Z,8.50
2019-03-29T01:06:12.906Z,8.50
2019-03-29T01:08:41.706Z,8.40
2019-03-29T01:11:10.702Z,8.40
2019-03-29T01:13:39.118Z,8.40
2019-03-29T01:16:07.526Z,8.30
2019-03-29T01:18:35.954Z,8.30
2019-03-29T01:21:04.660Z,8.20
2019-03-29T01:23:34.241Z,8.20
2019-03-29T01:26:02.964Z,8.10
2019-03-29T01:28:31.373Z,8.00
2019-03-29T01:30:59.785Z,8.00
2019-03-29T01:33:28.509Z,7.90
2019-03-29T01:35:56.903Z,7.90
2019-03-29T01:38:25.324Z,7.80
2019-03-29T01:40:53.738Z,7.80
2019-03-29T01:43:22.198Z,7.80
2019-03-29T01:45:50.604Z,7.70
2019-03-29T01:48:19.731Z,7.70
2019-03-29T01:50:48.178Z,7.60
2019-03-29T01:53:16.640Z,7.60
2019-03-29T01:55:45.051Z,7.60
2019-03-29T01:58:13.750Z,7.60
2019-03-29T02:00:42.162Z,7.70
2019-03-29T02:03:10.874Z,7.70
2019-03-29T02:05:39.275Z,7.70
2019-03-29T02:08:07.686Z,7.80
2019-03-29T02:10:36.157Z,7.80
2019-03-29T02:13:04.644Z,7.80
2019-03-29T02:15:33.063Z,7.80
2019-03-29T02:18:01.507Z,7.90
2019-03-29T02:20:30.239Z,7.90
2019-03-29T02:22:58.673Z,7.90
2019-03-29T02:25:27.420Z,7.90
2019-03-29T02:27:56.095Z,7.90
2019-03-29T02:30:24.494Z,7.80
2019-03-29T02:32:53.140Z,7.80
2019-03-29T02:35:21.626Z,7.80
2019-03-29T02:37:50.108Z,7.80
2019-03-29T02:40:18.538Z,7.80
2019-03-29T02:42:46.961Z,7.80
2019-03-29T02:45:15.435Z,7.80
2019-03-29T02:47:43.921Z,7.80
2019-03-29T02:50:12.520Z,7.80
2019-03-29T02:52:40.919Z,7.80
2019-03-29T02:55:09.863Z,7.70
2019-03-29T02:57:38.345Z,7.70
2019-03-29T03:00:10.627Z,7.70
2019-03-29T03:02:39.431Z,7.70
2019-03-29T03:05:09.527Z,7.70
2019-03-29T03:07:38.366Z,7.60
2019-03-29T03:10:09.071Z,7.60
2019-03-29T03:12:37.544Z,7.60
2019-03-29T03:15:08.200Z,7.60
2019-03-29T03:17:36.947Z,7.60
2019-03-29T03:20:14.589Z,7.60
2019-03-29T03:22:40.817Z,7.60
2019-03-29T03:25:09.774Z,7.60
2019-03-29T03:27:38.266Z,7.50
2019-03-29T03:30:09.141Z,7.50
2019-03-29T03:32:37.629Z,7.50
2019-03-29T03:35:08.546Z,7.50
2019-03-29T03:37:37.075Z,7.50
2019-03-29T03:40:07.348Z,7.40
2019-03-29T03:42:35.809Z,7.40
2019-03-29T03:45:07.138Z,7.40
2019-03-29T03:47:36.086Z,7.40
2019-03-29T03:50:05.749Z,7.30
2019-03-29T03:52:34.142Z,7.40
2019-03-29T03:55:03.123Z,7.30
2019-03-29T03:57:32.906Z,7.30
2019-03-29T04:00:02.091Z,7.30
2019-03-29T04:02:30.502Z,7.30
2019-03-29T04:04:58.917Z,7.20
2019-03-29T04:07:27.558Z,7.20
2019-03-29T04:09:55.997Z,7.20
2019-03-29T04:12:24.389Z,7.20
2019-03-29T04:14:52.872Z,7.10
2019-03-29T04:17:21.284Z,7.10
2019-03-29T04:19:49.701Z,7.10
2019-03-29T04:22:18.132Z,7.00
2019-03-29T04:24:46.561Z,7.00
2019-03-29T04:27:14.950Z,7.00
2019-03-29T04:29:43.362Z,7.00
2019-03-29T04:32:11.789Z,7.00
2019-03-29T04:34:40.192Z,7.00
2019-03-29T04:37:08.629Z,6.90
2019-03-29T04:39:37.071Z,6.90
2019-03-29T04:42:05.486Z,6.90
2019-03-29T04:44:33.895Z,6.80
2019-03-29T04:47:02.392Z,6.80
2019-03-29T04:49:30.792Z,6.80
2019-03-29T04:51:59.222Z,6.70
2019-03-29T04:54:27.634Z,6.70
2019-03-29T04:56:56.074Z,6.70
2019-03-29T04:59:24.474Z,6.70
2019-03-29T05:01:52.919Z,6.60
2019-03-29T05:04:21.406Z,6.60
2019-03-29T05:06:49.820Z,6.60
2019-03-29T05:09:18.306Z,6.60
2019-03-29T05:11:46.769Z,6.50
2019-03-29T05:14:15.166Z,6.50
2019-03-29T05:16:43.594Z,6.50
2019-03-29T05:19:12.362Z,6.60
2019-03-29T05:21:40.777Z,6.60
2019-03-29T05:24:09.218Z,6.50
2019-03-29T05:26:37.723Z,6.50
2019-03-29T05:29:06.124Z,6.50
2019-03-29T05:31:34.568Z,6.50
2019-03-29T05:34:02.983Z,6.50
2019-03-29T05:36:31.542Z,6.50
2019-03-29T05:39:00.006Z,6.50
2019-03-29T05:41:28.432Z,6.50
2019-03-29T05:43:56.891Z,6.50
2019-03-29T05:46:25.545Z,6.50
2019-03-29T05:48:54.516Z,6.60
2019-03-29T05:51:22.951Z,6.60
2019-03-29T05:53:51.719Z,6.60
2019-03-29T05:56:20.457Z,6.60
2019-03-29T05:58:48.882Z,6.60
2019-03-29T06:01:17.288Z,6.70
2019-03-29T06:03:45.765Z,6.70
2019-03-29T06:06:14.182Z,6.80
2019-03-29T06:08:42.600Z,7.00
2019-03-29T06:11:11.264Z,7.20
2019-03-29T06:13:39.824Z,7.50
2019-03-29T06:16:08.261Z,7.90
2019-03-29T06:18:36.697Z,8.30
2019-03-29T06:21:06.066Z,8.70
2019-03-29T06:23:34.549Z,9.20
2019-03-29T06:26:02.975Z,9.60
2019-03-29T06:28:31.430Z,10.00
2019-03-29T06:31:00.237Z,10.40
2019-03-29T06:33:28.697Z,10.80
2019-03-29T06:35:59.766Z,11.20
2019-03-29T06:38:30.066Z,11.70
2019-03-29T06:41:03.365Z,12.10
2019-03-29T06:43:28.632Z,12.50
2019-03-29T06:45:57.752Z,12.80
2019-03-29T06:48:26.205Z,13.10
2019-03-29T06:50:54.634Z,13.50
2019-03-29T06:53:23.163Z,13.80
2019-03-29T06:55:51.580Z,14.00
2019-03-29T06:58:20.005Z,14.30
2019-03-29T07:00:48.410Z,14.60
2019-03-29T07:03:16.842Z,14.90
2019-03-29T07:05:45.266Z,15.20
2019-03-29T07:08:13.686Z,15.50
2019-03-29T07:10:42.096Z,15.80
2019-03-29T07:13:10.821Z,16.10
2019-03-29T07:15:39.311Z,16.40
2019-03-29T07:18:07.763Z,16.60
2019-03-29T07:20:36.189Z,16.80
2019-03-29T07:23:04.640Z,17.00
2019-03-29T07:25:33.047Z,17.20
2019-03-29T07:28:01.491Z,17.40
2019-03-29T07:30:29.886Z,17.60
2019-03-29T07:32:58.365Z,17.80
2019-03-29T07:35:26.813Z,18.00
2019-03-29T07:37:55.256Z,18.20
2019-03-29T07:40:23.731Z,18.40
2019-03-29T07:42:52.165Z,18.60
2019-03-29T07:45:20.672Z,18.90
2019-03-29T07:47:49.116Z,19.10
2019-03-29T07:50:19.115Z,19.30
2019-03-29T07:52:47.828Z,19.50
2019-03-29T07:55:16.231Z,19.60
2019-03-29T07:57:44.669Z,19.80
2019-03-29T08:00:13.427Z,19.90
2019-03-29T08:02:41.858Z,20.10
2019-03-29T08:05:10.296Z,20.30
2019-03-29T08:07:38.732Z,20.50
2019-03-29T08:10:07.625Z,20.70
2019-03-29T08:12:36.108Z,20.90
2019-03-29T08:15:09.295Z,21.10
2019-03-29T08:17:36.717Z,21.30
2019-03-29T08:20:37.541Z,21.50
2019-03-29T08:22:36.325Z,21.60
2019-03-29T08:25:05.601Z,21.80
2019-03-29T08:27:34.170Z,22.00
2019-03-29T08:30:02.587Z,22.10
2019-03-29T08:32:31.053Z,22.20
2019-03-29T08:34:59.463Z,22.40
2019-03-29T08:37:27.902Z,22.60
2019-03-29T08:39:56.705Z,22.90
2019-03-29T08:42:25.318Z,23.10
2019-03-29T08:44:53.747Z,23.30
2019-03-29T08:47:22.170Z,23.60
2019-03-29T08:49:50.603Z,23.70
2019-03-29T08:52:19.042Z,23.90
2019-03-29T08:54:50.982Z,24.00
2019-03-29T08:57:17.636Z,24.00
2019-03-29T08:59:46.221Z,24.10
2019-03-29T09:02:14.622Z,24.00
2019-03-29T09:04:43.717Z,24.10
2019-03-29T09:07:12.218Z,24.10
2019-03-29T09:09:40.694Z,24.00
2019-03-29T09:12:14.788Z,23.90
2019-03-29T09:14:39.287Z,23.90
2019-03-29T09:17:07.703Z,23.80
2019-03-29T09:19:36.142Z,23.80
2019-03-29T09:22:04.544Z,23.90
2019-03-29T09:24:32.977Z,24.10
2019-03-29T09:27:01.466Z,24.30
2019-03-29T09:29:30.250Z,24.50
2019-03-29T09:31:58.676Z,24.70
2019-03-29T09:34:28.830Z,25.00
2019-03-29T09:36:59.903Z,25.20
2019-03-29T09:39:27.761Z,25.40
2019-03-29T09:41:56.351Z,25.40
2019-03-29T09:44:24.769Z,25.40
2019-03-29T09:46:53.218Z,25.50
2019-03-29T09:49:21.623Z,25.60
2019-03-29T09:51:50.387Z,25.50
2019-03-29T09:54:20.489Z,25.40
2019-03-29T09:56:49.192Z,25.50
2019-03-29T09:59:17.693Z,25.60
2019-03-29T10:01:46.150Z,25.80
2019-03-29T10:04:14.586Z,26.00
2019-03-29T10:06:43.034Z,26.30
2019-03-29T10:09:11.461Z,26.50
2019-03-29T10:11:39.875Z,26.70
2019-03-29T10:14:08.351Z,26.90
2019-03-29T10:16:36.900Z,27.00
2019-03-29T10:19:05.458Z,27.10
2019-03-29T10:21:34.337Z,27.10
2019-03-29T10:24:02.967Z,27.20
2019-03-29T10:26:31.470Z,27.30
2019-03-29T10:28:59.886Z,27.50
2019-03-29T10:31:32.444Z,27.50
2019-03-29T10:33:58.931Z,27.50
2019-03-29T10:36:27.617Z,27.50
2019-03-29T10:38:56.098Z,27.50
2019-03-29T10:41:24.568Z,27.60
2019-03-29T10:43:52.982Z,27.60
2019-03-29T10:46:21.447Z,27.60
2019-03-29T10:48:49.915Z,27.60
2019-03-29T10:51:18.430Z,27.50
2019-03-29T10:53:46.844Z,27.50
2019-03-29T10:56:15.445Z,27.50
2019-03-29T10:58:45.026Z,27.30
2019-03-29T11:01:14.611Z,27.20
2019-03-29T11:03:43.020Z,27.20
2019-03-29T11:06:11.446Z,27.20
2019-03-29T11:08:43.366Z,27.20
2019-03-29T11:11:10.139Z,27.10
2019-03-29T11:13:41.031Z,27.00
2019-03-29T11:16:08.942Z,27.00
2019-03-29T11:18:37.433Z,27.00
2019-03-29T11:21:06.215Z,26.80
2019-03-29T11:23:34.709Z,26.70
2019-03-29T11:26:03.135Z,26.70
2019-03-29T11:28:31.686Z,26.70
2019-03-29T11:31:00.107Z,26.80
2019-03-29T11:33:28.900Z,26.80
2019-03-29T11:35:57.682Z,26.90
2019-03-29T11:38:26.098Z,26.90
2019-03-29T11:40:54.532Z,27.00
2019-03-29T11:43:27.200Z,27.00
2019-03-29T11:45:53.120Z,27.10
2019-03-29T11:48:21.568Z,27.20
2019-03-29T11:50:50.061Z,27.20
2019-03-29T11:53:18.483Z,27.30
2019-03-29T11:55:46.890Z,27.40
2019-03-29T11:58:15.323Z,27.50
2019-03-29T12:00:43.730Z,27.50
2019-03-29T12:03:12.671Z,27.50
2019-03-29T12:05:41.161Z,27.40
2019-03-29T12:08:09.652Z,27.30
2019-03-29T12:10:38.303Z,27.30
2019-03-29T12:13:07.767Z,27.20
2019-03-29T12:15:36.165Z,27.00
2019-03-29T12:18:04.658Z,26.90
2019-03-29T12:20:33.198Z,26.60
2019-03-29T12:23:01.659Z,26.40
2019-03-29T12:25:30.086Z,26.40
2019-03-29T12:27:58.671Z,26.30
2019-03-29T12:30:31.702Z,26.30
2019-03-29T12:32:57.209Z,26.40
2019-03-29T12:35:25.617Z,26.50
2019-03-29T12:37:54.042Z,26.60
2019-03-29T12:40:22.920Z,26.70
2019-03-29T12:42:51.343Z,26.60
2019-03-29T12:45:19.778Z,26.60
2019-03-29T12:47:48.242Z,26.50
2019-03-29T12:50:16.682Z,26.40
2019-03-29T12:52:45.086Z,26.40
2019-03-29T12:55:13.515Z,26.40
2019-03-29T12:57:41.919Z,26.50
2019-03-29T13:00:10.736Z,26.40
2019-03-29T13:02:39.206Z,26.30
2019-03-29T13:05:08.778Z,26.20
2019-03-29T13:07:37.210Z,26.00
2019-03-29T13:10:09.369Z,25.70
2019-03-29T13:12:38.244Z,25.50
2019-03-29T13:15:08.028Z,25.40
2019-03-29T13:17:42.732Z,25.10
2019-03-29T13:20:11.446Z,24.90
2019-03-29T13:22:39.863Z,24.60
2019-03-29T13:25:08.439Z,24.30
2019-03-29T13:27:36.842Z,24.10
2019-03-29T13:30:08.112Z,23.90
2019-03-29T13:32:36.610Z,23.60
2019-03-29T13:35:06.983Z,23.30
2019-03-29T13:37:35.430Z,23.10
2019-03-29T13:40:06.570Z,22.90
2019-03-29T13:42:34.211Z,22.80
2019-03-29T13:45:02.726Z,22.60
2019-03-29T13:47:31.194Z,22.50
2019-03-29T13:49:59.959Z,22.40
2019-03-29T13:52:31.175Z,22.40
2019-03-29T13:55:00.412Z,22.40
2019-03-29T13:57:29.138Z,22.40
2019-03-29T13:59:57.557Z,22.40
2019-03-29T14:02:25.997Z,22.40
2019-03-29T14:04:54.457Z,22.40
2019-03-29T14:07:22.846Z,22.30
2019-03-29T14:09:51.267Z,22.20
2019-03-29T14:12:19.694Z,22.10
2019-03-29T14:14:48.103Z,22.00
2019-03-29T14:17:16.682Z,22.00
2019-03-29T14:19:45.101Z,22.00
2019-03-29T14:22:13.674Z,21.90
2019-03-29T14:24:42.128Z,21.90
2019-03-29T14:27:10.751Z,22.00
2019-03-29T14:29:39.234Z,22.00
2019-03-29T14:32:07.654Z,22.00
2019-03-29T14:34:36.066Z,22.00
2019-03-29T14:37:04.556Z,22.00
2019-03-29T14:39:33.397Z,21.90
2019-03-29T14:42:01.814Z,21.90
2019-03-29T14:44:30.210Z,21.80
2019-03-29T14:46:58.677Z,21.70
2019-03-29T14:49:27.116Z,21.60
2019-03-29T14:51:55.522Z,21.60
2019-03-29T14:54:23.925Z,21.50
2019-03-29T14:56:52.373Z,21.40
2019-03-29T14:59:20.787Z,21.40
2019-03-29T15:01:49.245Z,21.40
2019-03-29T15:04:17.706Z,21.40
2019-03-29T15:06:46.124Z,21.40
2019-03-29T15:09:14.621Z,21.30
2019-03-29T15:11:43.058Z,21.30
2019-03-29T15:14:11.523Z,21.20
2019-03-29T15:16:39.989Z,21.10
2019-03-29T15:19:08.416Z,21.10
2019-03-29T15:21:36.836Z,21.10
2019-03-29T15:24:05.708Z,21.00
2019-03-29T15:26:34.110Z,21.00
2019-03-29T15:29:02.815Z,20.90
2019-03-29T15:31:31.208Z,20.90
2019-03-29T15:33:59.655Z,20.80
2019-03-29T15:36:28.142Z,20.80
2019-03-29T15:38:56.722Z,20.80
2019-03-29T15:41:25.222Z,20.80
2019-03-29T15:43:53.720Z,20.80
2019-03-29T15:46:22.149Z,20.70
2019-03-29T15:48:50.592Z,20.70
2019-03-29T15:51:19.640Z,20.70
2019-03-29T15:53:48.083Z,20.70
2019-03-29T15:56:16.502Z,20.70
2019-03-29T15:58:45.627Z,20.70
2019-03-29T16:01:14.025Z,20.70
2019-03-29T16:03:42.448Z,20.70
2019-03-29T16:06:10.884Z,20.60
2019-03-29T16:08:39.662Z,20.60
2019-03-29T16:11:09.285Z,20.60
2019-03-29T16:13:38.003Z,20.50
2019-03-29T16:16:06.427Z,20.50
2019-03-29T16:18:34.866Z,20.50
2019-03-29T16:21:03.278Z,20.50
2019-03-29T16:23:31.707Z,20.40
2019-03-29T16:26:00.097Z,20.40
2019-03-29T16:28:28.536Z,20.40
2019-03-29T16:30:56.955Z,20.30
2019-03-29T16:33:25.378Z,20.30
2019-03-29T16:35:53.847Z,20.30
2019-03-29T16:38:22.264Z,20.20
2019-03-29T16:40:50.700Z,20.20
2019-03-29T16:43:19.186Z,20.20
2019-03-29T16:45:48.474Z,20.20
2019-03-29T16:48:20.958Z,20.10
2019-03-29T16:50:48.932Z,20.10
2019-03-29T16:53:17.341Z,20.00
2019-03-29T16:55:45.983Z,19.90
2019-03-29T16:58:14.430Z,19.90
2019-03-29T17:00:42.865Z,19.90
2019-03-29T17:03:11.336Z,19.80
2019-03-29T17:05:42.093Z,19.80
2019-03-29T17:08:10.143Z,19.70
2019-03-29T17:10:38.566Z,19.70
2019-03-29T17:13:07.009Z,19.60
2019-03-29T17:15:35.480Z,19.60
2019-03-29T17:18:03.994Z,19.50
2019-03-29T17:20:32.422Z,19.50
2019-03-29T17:23:00.831Z,19.50
2019-03-29T17:25:29.243Z,19.40
2019-03-29T17:27:57.653Z,19.40
2019-03-29T17:30:39.231Z,19.40
2019-03-29T17:33:07.660Z,19.30
2019-03-29T17:35:36.077Z,19.20
2019-03-29T17:38:04.866Z,19.20
2019-03-29T17:40:33.697Z,19.10
2019-03-29T17:43:02.535Z,19.10
2019-03-29T17:45:31.046Z,19.00
2019-03-29T17:47:59.466Z,19.00
2019-03-29T17:50:27.975Z,18.90
2019-03-29T17:52:56.412Z,18.90
2019-03-29T17:55:24.867Z,18.80
2019-03-29T17:57:53.277Z,18.80
2019-03-29T18:00:23.561Z,18.70
2019-03-29T18:02:52.036Z,18.60
2019-03-29T18:05:20.456Z,18.60
2019-03-29T18:07:48.868Z,18.50
2019-03-29T18:10:19.573Z,18.40
2019-03-29T18:12:48.043Z,18.30
2019-03-29T18:15:18.297Z,18.30
2019-03-29T18:17:46.699Z,18.20
2019-03-29T18:20:15.686Z,18.20
2019-03-29T18:22:44.102Z,18.10
2019-03-29T18:25:12.705Z,18.00
2019-03-29T18:27:41.188Z,18.00
2019-03-29T18:30:12.313Z,17.90
2019-03-29T18:32:40.895Z,17.90
2019-03-29T18:35:10.479Z,17.80
2019-03-29T18:37:39.273Z,17.80
2019-03-29T18:40:19.488Z,17.70
2019-03-29T18:42:47.894Z,17.60
2019-03-29T18:45:16.319Z,17.60
2019-03-29T18:47:44.842Z,17.50
2019-03-29T18:50:13.337Z,17.40
2019-03-29T18:52:42.924Z,17.40
2019-03-29T18:55:11.477Z,17.30
2019-03-29T18:57:39.927Z,17.30
2019-03-29T19:00:09.679Z,17.20
2019-03-29T19:02:38.682Z,17.20
2019-03-29T19:05:09.035Z,17.10
2019-03-29T19:07:38.321Z,17.00
2019-03-29T19:10:07.756Z,17.00
2019-03-29T19:12:36.170Z,16.90
2019-03-29T19:15:06.217Z,16.90
2019-03-29T19:17:34.653Z,16.80
2019-03-29T19:20:03.420Z,16.80
2019-03-29T19:22:31.957Z,16.70
2019-03-29T19:25:00.557Z,16.70
2019-03-29T19:27:28.973Z,16.60
2019-03-29T19:29:57.554Z,16.50
2019-03-29T19:32:25.973Z,16.50
2019-03-29T19:34:54.395Z,16.40
2019-03-29T19:37:22.809Z,16.40
2019-03-29T19:39:51.226Z,16.30
2019-03-29T19:42:19.677Z,16.30
2019-03-29T19:44:48.502Z,16.20
2019-03-29T19:47:18.016Z,16.20
2019-03-29T19:49:46.423Z,16.20
2019-03-29T19:52:14.857Z,16.10
2019-03-29T19:54:43.917Z,16.00
2019-03-29T19:57:13.001Z,15.90
2019-03-29T19:59:41.595Z,15.90
2019-03-29T20:02:10.086Z,15.80
2019-03-29T20:04:38.491Z,15.70
2019-03-29T20:07:07.141Z,15.70
2019-03-29T20:09:37.194Z,15.60
2019-03-29T20:12:05.734Z,15.60
2019-03-29T20:14:34.161Z,15.50
2019-03-29T20:17:02.823Z,15.50
2019-03-29T20:19:31.973Z,15.40
2019-03-29T20:22:00.425Z,15.30
2019-03-29T20:24:28.871Z,15.20
2019-03-29T20:26:57.274Z,15.20
2019-03-29T20:29:26.138Z,15.10
2019-03-29T20:34:47.120Z,15.10
2019-03-29T20:37:15.614Z,15.10
2019-03-29T20:39:44.353Z,15.00
2019-03-29T20:42:12.775Z,15.00
2019-03-29T20:44:41.212Z,14.90
2019-03-29T20:47:10.741Z,14.90
2019-03-29T20:49:39.209Z,14.90
2019-03-29T20:52:07.615Z,14.80
2019-03-29T20:54:36.355Z,14.80
2019-03-29T20:57:05.035Z,14.80
2019-03-29T20:59:34.220Z,14.70
2019-03-29T21:02:02.637Z,14.70
2019-03-29T21:04:31.033Z,14.60
2019-03-29T21:06:59.496Z,14.60
2019-03-29T21:09:28.055Z,14.60
2019-03-29T21:11:56.515Z,14.50
2019-03-29T21:14:24.976Z,14.40
2019-03-29T21:16:55.914Z,14.40
2019-03-29T21:19:23.640Z,14.30
2019-03-29T21:21:52.662Z,14.30
2019-03-29T21:24:21.092Z,14.20
2019-03-29T21:26:49.517Z,14.10
2019-03-29T21:29:17.960Z,14.10
2019-03-29T21:31:46.359Z,14.00
2019-03-29T21:34:14.844Z,13.90
2019-03-29T21:36:43.304Z,13.80
2019-03-29T21:39:14.654Z,13.70
2019-03-29T21:41:42.643Z,13.70
2019-03-29T21:44:11.084Z,13.60
2019-03-29T21:46:39.568Z,13.50
2019-03-29T21:49:08.164Z,13.40
2019-03-29T21:51:36.658Z,13.40
2019-03-29T21:54:05.133Z,13.30
2019-03-29T21:56:33.592Z,13.20
2019-03-29T21:59:02.458Z,13.20
2019-03-29T22:01:30.906Z,13.10
2019-03-29T22:03:59.535Z,13.00
2019-03-29T22:06:28.001Z,13.00
2019-03-29T22:08:56.864Z,13.00
2019-03-29T22:11:25.583Z,12.90
2019-03-29T22:13:54.008Z,12.90
2019-03-29T22:16:22.477Z,12.80
2019-03-29T22:18:50.989Z,12.80
2019-03-29T22:21:19.614Z,12.70
2019-03-29T22:23:48.086Z,12.70
2019-03-29T22:26:16.526Z,12.60
2019-03-29T22:28:44.987Z,12.60
2019-03-29T22:31:13.549Z,12.50
2019-03-29T22:36:20.558Z,12.50
2019-03-29T22:38:48.980Z,12.40
2019-03-29T22:41:17.417Z,12.30
2019-03-29T22:43:45.842Z,12.30
2019-03-29T22:46:14.293Z,12.30
2019-03-29T22:48:52.024Z,12.20
2019-03-29T22:51:12.938Z,12.10
2019-03-29T22:53:41.398Z,12.10
2019-03-29T22:56:09.820Z,12.10
2019-03-29T22:58:38.223Z,12.00
2019-03-29T23:01:07.184Z,12.00
2019-03-29T23:03:35.605Z,12.00
2019-03-29T23:06:04.122Z,11.90
2019-03-29T23:08:32.526Z,11.90
2019-03-29T23:11:00.937Z,11.90
2019-03-29T23:13:30.368Z,11.90
2019-03-29T23:15:58.825Z,11.90
2019-03-29T23:18:27.621Z,11.90
2019-03-29T23:20:56.095Z,11.90
2019-03-29T23:23:24.511Z,11.80
2019-03-29T23:25:52.944Z,11.80
2019-03-29T23:28:21.354Z,11.80
2019-03-29T23:30:49.838Z,11.80
2019-03-29T23:33:18.302Z,11.80
2019-03-29T23:35:46.711Z,11.80
2019-03-29T23:38:16.101Z,11.80
2019-03-29T23:40:44.603Z,11.80
2019-03-29T23:43:13.065Z,11.80
2019-03-29T23:45:41.497Z,11.80
2019-03-29T23:48:09.912Z,11.80
2019-03-29T23:50:38.338Z,11.70
2019-03-29T23:53:06.768Z,11.70
2019-03-29T23:55:35.203Z,11.80
2019-03-29T23:58:03.707Z,11.70
